sensor_id;sensor_type;location;lat;lon;timestamp;P1;durP1;ratioP1;P2;durP2;ratioP2
21091;SDS011;10704;42.678;23.288;2022-09-24T00:01:16;12.52;;;7.63;;
21091;SDS011;10704;42.678;23.288;2022-09-24T00:03:48;10.90;;;7.15;;
21091;SDS011;10704;42.678;23.288;2022-09-24T00:06:18;11.15;;;7.13;;
21091;SDS011;10704;42.678;23.288;2022-09-24T00:08:45;12.35;;;6.85;;
21091;SDS011;10704;42.678;23.288;2022-09-24T00:11:13;10.23;;;6.57;;
21091;SDS011;10704;42.678;23.288;2022-09-24T00:13:40;10.90;;;6.72;;
21091;SDS011;10704;42.678;23.288;2022-09-24T00:16:07;9.77;;;6.10;;
21091;SDS011;10704;42.678;23.288;2022-09-24T00:18:38;14.88;;;6.82;;
21091;SDS011;10704;42.678;23.288;2022-09-24T00:23:47;10.68;;;6.70;;
21091;SDS011;10704;42.678;23.288;2022-09-24T00:26:18;12.00;;;7.20;;
21091;SDS011;10704;42.678;23.288;2022-09-24T00:29:04;12.52;;;6.35;;
21091;SDS011;10704;42.678;23.288;2022-09-24T00:31:30;10.35;;;6.18;;
21091;SDS011;10704;42.678;23.288;2022-09-24T00:33:57;11.43;;;7.25;;
21091;SDS011;10704;42.678;23.288;2022-09-24T00:36:23;10.73;;;6.47;;
21091;SDS011;10704;42.678;23.288;2022-09-24T00:38:52;8.95;;;5.80;;
21091;SDS011;10704;42.678;23.288;2022-09-24T00:41:21;8.80;;;6.10;;
21091;SDS011;10704;42.678;23.288;2022-09-24T00:43:49;10.27;;;6.10;;
21091;SDS011;10704;42.678;23.288;2022-09-24T00:48:59;9.98;;;5.97;;
21091;SDS011;10704;42.678;23.288;2022-09-24T00:51:28;12.52;;;6.30;;
21091;SDS011;10704;42.678;23.288;2022-09-24T00:53:58;9.93;;;5.90;;
21091;SDS011;10704;42.678;23.288;2022-09-24T00:56:27;9.82;;;6.10;;
21091;SDS011;10704;42.678;23.288;2022-09-24T00:58:55;10.85;;;5.93;;
21091;SDS011;10704;42.678;23.288;2022-09-24T01:01:22;10.40;;;6.28;;
21091;SDS011;10704;42.678;23.288;2022-09-24T01:03:49;9.75;;;5.85;;
21091;SDS011;10704;42.678;23.288;2022-09-24T01:06:17;9.70;;;6.15;;
21091;SDS011;10704;42.678;23.288;2022-09-24T01:08:44;9.20;;;5.90;;
21091;SDS011;10704;42.678;23.288;2022-09-24T01:14:01;10.30;;;6.90;;
21091;SDS011;10704;42.678;23.288;2022-09-24T01:28:00;7.88;;;5.53;;
21091;SDS011;10704;42.678;23.288;2022-09-24T01:30:38;8.70;;;6.10;;
21091;SDS011;10704;42.678;23.288;2022-09-24T01:33:07;9.68;;;6.25;;
21091;SDS011;10704;42.678;23.288;2022-09-24T01:35:42;12.00;;;6.32;;
21091;SDS011;10704;42.678;23.288;2022-09-24T01:38:12;10.85;;;6.78;;
21091;SDS011;10704;42.678;23.288;2022-09-24T01:40:41;10.43;;;7.05;;
21091;SDS011;10704;42.678;23.288;2022-09-24T01:43:10;11.95;;;7.03;;
21091;SDS011;10704;42.678;23.288;2022-09-24T01:45:37;12.63;;;7.38;;
21091;SDS011;10704;42.678;23.288;2022-09-24T01:48:04;12.65;;;7.55;;
21091;SDS011;10704;42.678;23.288;2022-09-24T01:50:37;14.25;;;8.43;;
21091;SDS011;10704;42.678;23.288;2022-09-24T01:53:20;15.13;;;9.38;;
21091;SDS011;10704;42.678;23.288;2022-09-24T01:55:53;15.52;;;9.50;;
21091;SDS011;10704;42.678;23.288;2022-09-24T01:58:29;20.05;;;10.23;;
21091;SDS011;10704;42.678;23.288;2022-09-24T02:01:02;14.82;;;10.00;;
21091;SDS011;10704;42.678;23.288;2022-09-24T02:03:38;17.67;;;11.02;;
21091;SDS011;10704;42.678;23.288;2022-09-24T02:06:19;16.25;;;11.13;;
21091;SDS011;10704;42.678;23.288;2022-09-24T02:08:57;19.00;;;10.98;;
21091;SDS011;10704;42.678;23.288;2022-09-24T02:11:23;18.35;;;10.10;;
21091;SDS011;10704;42.678;23.288;2022-09-24T02:16:38;20.77;;;11.40;;
21091;SDS011;10704;42.678;23.288;2022-09-24T02:19:10;18.55;;;10.75;;
21091;SDS011;10704;42.678;23.288;2022-09-24T02:21:39;16.52;;;10.55;;
21091;SDS011;10704;42.678;23.288;2022-09-24T02:24:09;15.43;;;10.40;;
21091;SDS011;10704;42.678;23.288;2022-09-24T02:26:42;19.85;;;11.65;;
21091;SDS011;10704;42.678;23.288;2022-09-24T02:29:08;17.20;;;11.05;;
21091;SDS011;10704;42.678;23.288;2022-09-24T02:31:36;21.65;;;10.88;;
21091;SDS011;10704;42.678;23.288;2022-09-24T02:34:06;20.30;;;10.60;;
21091;SDS011;10704;42.678;23.288;2022-09-24T02:39:12;19.08;;;10.55;;
21091;SDS011;10704;42.678;23.288;2022-09-24T02:41:39;15.52;;;8.35;;
21091;SDS011;10704;42.678;23.288;2022-09-24T02:44:06;12.35;;;8.18;;
21091;SDS011;10704;42.678;23.288;2022-09-24T02:46:32;14.45;;;9.50;;
21091;SDS011;10704;42.678;23.288;2022-09-24T02:48:58;16.13;;;9.48;;
21091;SDS011;10704;42.678;23.288;2022-09-24T02:51:24;15.70;;;9.20;;
21091;SDS011;10704;42.678;23.288;2022-09-24T02:53:50;16.67;;;9.93;;
21091;SDS011;10704;42.678;23.288;2022-09-24T02:56:16;14.50;;;9.20;;
21091;SDS011;10704;42.678;23.288;2022-09-24T02:58:42;14.93;;;9.90;;
21091;SDS011;10704;42.678;23.288;2022-09-24T03:01:08;18.92;;;10.05;;
21091;SDS011;10704;42.678;23.288;2022-09-24T03:03:34;14.75;;;9.98;;
21091;SDS011;10704;42.678;23.288;2022-09-24T03:06:00;14.32;;;9.43;;
21091;SDS011;10704;42.678;23.288;2022-09-24T03:08:26;14.07;;;9.20;;
21091;SDS011;10704;42.678;23.288;2022-09-24T03:10:52;12.40;;;8.45;;
21091;SDS011;10704;42.678;23.288;2022-09-24T03:13:18;16.33;;;9.07;;
21091;SDS011;10704;42.678;23.288;2022-09-24T03:15:44;14.55;;;8.52;;
21091;SDS011;10704;42.678;23.288;2022-09-24T03:18:11;14.48;;;9.48;;
21091;SDS011;10704;42.678;23.288;2022-09-24T03:20:37;16.30;;;9.27;;
21091;SDS011;10704;42.678;23.288;2022-09-24T03:23:04;13.45;;;8.60;;
21091;SDS011;10704;42.678;23.288;2022-09-24T03:25:30;13.80;;;8.73;;
21091;SDS011;10704;42.678;23.288;2022-09-24T03:27:55;13.15;;;8.15;;
21091;SDS011;10704;42.678;23.288;2022-09-24T03:30:21;14.10;;;9.18;;
21091;SDS011;10704;42.678;23.288;2022-09-24T03:33:06;13.18;;;8.43;;
21091;SDS011;10704;42.678;23.288;2022-09-24T03:35:32;15.40;;;8.55;;
21091;SDS011;10704;42.678;23.288;2022-09-24T03:37:58;15.27;;;8.85;;
21091;SDS011;10704;42.678;23.288;2022-09-24T03:40:24;15.65;;;9.00;;
21091;SDS011;10704;42.678;23.288;2022-09-24T03:42:50;15.13;;;8.70;;
21091;SDS011;10704;42.678;23.288;2022-09-24T03:45:16;14.77;;;7.60;;
21091;SDS011;10704;42.678;23.288;2022-09-24T03:47:42;15.63;;;9.15;;
21091;SDS011;10704;42.678;23.288;2022-09-24T03:50:08;12.65;;;8.63;;
21091;SDS011;10704;42.678;23.288;2022-09-24T03:52:39;13.73;;;9.00;;
21091;SDS011;10704;42.678;23.288;2022-09-24T03:55:05;14.75;;;8.25;;
21091;SDS011;10704;42.678;23.288;2022-09-24T03:57:32;13.48;;;8.65;;
21091;SDS011;10704;42.678;23.288;2022-09-24T03:59:58;13.35;;;8.52;;
21091;SDS011;10704;42.678;23.288;2022-09-24T04:02:24;14.75;;;9.05;;
21091;SDS011;10704;42.678;23.288;2022-09-24T04:04:50;16.13;;;8.27;;
21091;SDS011;10704;42.678;23.288;2022-09-24T04:07:16;14.07;;;8.55;;
21091;SDS011;10704;42.678;23.288;2022-09-24T04:09:42;13.90;;;8.65;;
21091;SDS011;10704;42.678;23.288;2022-09-24T04:12:08;13.90;;;8.90;;
21091;SDS011;10704;42.678;23.288;2022-09-24T04:14:34;14.48;;;8.65;;
21091;SDS011;10704;42.678;23.288;2022-09-24T04:17:01;17.08;;;9.48;;
21091;SDS011;10704;42.678;23.288;2022-09-24T04:19:27;17.20;;;9.10;;
21091;SDS011;10704;42.678;23.288;2022-09-24T04:21:56;13.77;;;8.43;;
21091;SDS011;10704;42.678;23.288;2022-09-24T04:24:22;17.60;;;10.57;;
21091;SDS011;10704;42.678;23.288;2022-09-24T04:26:47;15.27;;;9.60;;
21091;SDS011;10704;42.678;23.288;2022-09-24T04:29:14;15.38;;;8.52;;
21091;SDS011;10704;42.678;23.288;2022-09-24T04:31:41;19.40;;;9.80;;
21091;SDS011;10704;42.678;23.288;2022-09-24T04:34:07;21.27;;;9.48;;
21091;SDS011;10704;42.678;23.288;2022-09-24T04:36:34;15.18;;;9.18;;
21091;SDS011;10704;42.678;23.288;2022-09-24T04:39:00;16.95;;;9.27;;
21091;SDS011;10704;42.678;23.288;2022-09-24T04:41:27;13.77;;;9.15;;
21091;SDS011;10704;42.678;23.288;2022-09-24T04:43:55;18.60;;;9.95;;
21091;SDS011;10704;42.678;23.288;2022-09-24T04:46:21;14.70;;;8.85;;
21091;SDS011;10704;42.678;23.288;2022-09-24T04:48:47;15.75;;;9.23;;
21091;SDS011;10704;42.678;23.288;2022-09-24T04:51:14;19.73;;;10.48;;
21091;SDS011;10704;42.678;23.288;2022-09-24T04:53:41;14.75;;;8.85;;
21091;SDS011;10704;42.678;23.288;2022-09-24T04:56:08;13.15;;;9.00;;
21091;SDS011;10704;42.678;23.288;2022-09-24T04:58:36;16.33;;;10.13;;
21091;SDS011;10704;42.678;23.288;2022-09-24T05:01:02;14.52;;;9.02;;
21091;SDS011;10704;42.678;23.288;2022-09-24T05:03:29;13.30;;;8.70;;
21091;SDS011;10704;42.678;23.288;2022-09-24T05:05:55;14.02;;;8.75;;
21091;SDS011;10704;42.678;23.288;2022-09-24T05:08:21;15.85;;;8.98;;
21091;SDS011;10704;42.678;23.288;2022-09-24T05:10:47;18.55;;;10.15;;
21091;SDS011;10704;42.678;23.288;2022-09-24T05:13:13;17.15;;;10.07;;
21091;SDS011;10704;42.678;23.288;2022-09-24T05:15:40;16.30;;;10.60;;
21091;SDS011;10704;42.678;23.288;2022-09-24T05:18:06;19.40;;;10.00;;
21091;SDS011;10704;42.678;23.288;2022-09-24T05:20:32;16.58;;;9.82;;
21091;SDS011;10704;42.678;23.288;2022-09-24T05:22:58;23.02;;;10.30;;
21091;SDS011;10704;42.678;23.288;2022-09-24T05:25:24;18.58;;;9.90;;
21091;SDS011;10704;42.678;23.288;2022-09-24T05:27:50;17.77;;;9.02;;
21091;SDS011;10704;42.678;23.288;2022-09-24T05:30:19;17.13;;;9.55;;
21091;SDS011;10704;42.678;23.288;2022-09-24T05:32:46;13.70;;;9.57;;
21091;SDS011;10704;42.678;23.288;2022-09-24T05:35:19;22.23;;;10.15;;
21091;SDS011;10704;42.678;23.288;2022-09-24T05:37:45;13.18;;;9.75;;
21091;SDS011;10704;42.678;23.288;2022-09-24T05:40:13;18.55;;;10.07;;
21091;SDS011;10704;42.678;23.288;2022-09-24T05:42:59;15.90;;;9.68;;
21091;SDS011;10704;42.678;23.288;2022-09-24T05:45:26;17.77;;;10.98;;
21091;SDS011;10704;42.678;23.288;2022-09-24T05:47:52;15.52;;;9.73;;
21091;SDS011;10704;42.678;23.288;2022-09-24T05:50:18;17.42;;;9.95;;
21091;SDS011;10704;42.678;23.288;2022-09-24T05:52:45;17.23;;;10.63;;
21091;SDS011;10704;42.678;23.288;2022-09-24T05:55:11;16.45;;;10.15;;
21091;SDS011;10704;42.678;23.288;2022-09-24T05:57:37;15.27;;;9.60;;
21091;SDS011;10704;42.678;23.288;2022-09-24T06:00:04;18.23;;;11.00;;
21091;SDS011;10704;42.678;23.288;2022-09-24T06:02:37;15.23;;;9.77;;
21091;SDS011;10704;42.678;23.288;2022-09-24T06:05:03;13.82;;;9.75;;
21091;SDS011;10704;42.678;23.288;2022-09-24T06:07:29;13.77;;;9.77;;
21091;SDS011;10704;42.678;23.288;2022-09-24T06:09:55;12.93;;;8.85;;
21091;SDS011;10704;42.678;23.288;2022-09-24T06:12:23;15.73;;;10.02;;
21091;SDS011;10704;42.678;23.288;2022-09-24T06:14:49;17.70;;;10.35;;
21091;SDS011;10704;42.678;23.288;2022-09-24T06:17:17;17.15;;;9.32;;
21091;SDS011;10704;42.678;23.288;2022-09-24T06:19:44;17.38;;;10.77;;
21091;SDS011;10704;42.678;23.288;2022-09-24T06:22:11;18.35;;;10.35;;
21091;SDS011;10704;42.678;23.288;2022-09-24T06:24:37;14.43;;;9.43;;
21091;SDS011;10704;42.678;23.288;2022-09-24T06:27:04;14.55;;;9.50;;
21091;SDS011;10704;42.678;23.288;2022-09-24T06:29:30;14.50;;;9.73;;
21091;SDS011;10704;42.678;23.288;2022-09-24T06:31:57;17.92;;;10.77;;
21091;SDS011;10704;42.678;23.288;2022-09-24T06:34:24;18.27;;;9.80;;
21091;SDS011;10704;42.678;23.288;2022-09-24T06:36:52;14.88;;;10.13;;
21091;SDS011;10704;42.678;23.288;2022-09-24T06:39:19;14.10;;;9.43;;
21091;SDS011;10704;42.678;23.288;2022-09-24T06:41:46;13.98;;;9.70;;
21091;SDS011;10704;42.678;23.288;2022-09-24T06:44:14;15.07;;;10.35;;
21091;SDS011;10704;42.678;23.288;2022-09-24T06:46:41;18.10;;;11.43;;
21091;SDS011;10704;42.678;23.288;2022-09-24T06:49:07;17.67;;;10.40;;
21091;SDS011;10704;42.678;23.288;2022-09-24T06:51:33;16.20;;;10.23;;
21091;SDS011;10704;42.678;23.288;2022-09-24T06:53:59;17.65;;;10.77;;
21091;SDS011;10704;42.678;23.288;2022-09-24T06:56:25;15.38;;;9.20;;
21091;SDS011;10704;42.678;23.288;2022-09-24T06:58:51;15.38;;;9.00;;
21091;SDS011;10704;42.678;23.288;2022-09-24T07:01:18;19.40;;;10.75;;
21091;SDS011;10704;42.678;23.288;2022-09-24T07:03:44;15.93;;;10.63;;
21091;SDS011;10704;42.678;23.288;2022-09-24T07:06:10;14.18;;;10.18;;
21091;SDS011;10704;42.678;23.288;2022-09-24T07:08:36;16.27;;;9.73;;
21091;SDS011;10704;42.678;23.288;2022-09-24T07:11:02;15.02;;;9.05;;
21091;SDS011;10704;42.678;23.288;2022-09-24T07:13:28;17.33;;;10.18;;
21091;SDS011;10704;42.678;23.288;2022-09-24T07:15:55;15.13;;;9.13;;
21091;SDS011;10704;42.678;23.288;2022-09-24T07:18:21;14.68;;;9.52;;
21091;SDS011;10704;42.678;23.288;2022-09-24T07:20:54;12.75;;;8.88;;
21091;SDS011;10704;42.678;23.288;2022-09-24T07:23:20;12.73;;;9.05;;
21091;SDS011;10704;42.678;23.288;2022-09-24T07:25:47;13.68;;;9.07;;
21091;SDS011;10704;42.678;23.288;2022-09-24T07:28:14;13.15;;;8.00;;
21091;SDS011;10704;42.678;23.288;2022-09-24T07:30:40;12.63;;;8.30;;
21091;SDS011;10704;42.678;23.288;2022-09-24T07:33:06;10.68;;;8.48;;
21091;SDS011;10704;42.678;23.288;2022-09-24T07:35:35;14.45;;;9.25;;
21091;SDS011;10704;42.678;23.288;2022-09-24T07:38:03;11.07;;;8.20;;
21091;SDS011;10704;42.678;23.288;2022-09-24T07:40:31;13.18;;;8.98;;
21091;SDS011;10704;42.678;23.288;2022-09-24T07:42:58;14.38;;;8.98;;
21091;SDS011;10704;42.678;23.288;2022-09-24T07:45:24;13.55;;;8.60;;
21091;SDS011;10704;42.678;23.288;2022-09-24T07:47:56;13.80;;;9.00;;
21091;SDS011;10704;42.678;23.288;2022-09-24T07:50:25;15.05;;;8.48;;
21091;SDS011;10704;42.678;23.288;2022-09-24T07:52:51;13.80;;;7.95;;
21091;SDS011;10704;42.678;23.288;2022-09-24T07:55:18;14.00;;;9.15;;
21091;SDS011;10704;42.678;23.288;2022-09-24T07:57:48;14.95;;;9.07;;
21091;SDS011;10704;42.678;23.288;2022-09-24T08:00:16;14.50;;;8.43;;
21091;SDS011;10704;42.678;23.288;2022-09-24T08:02:44;14.80;;;7.90;;
21091;SDS011;10704;42.678;23.288;2022-09-24T08:05:11;13.90;;;8.68;;
21091;SDS011;10704;42.678;23.288;2022-09-24T08:07:39;12.63;;;8.20;;
21091;SDS011;10704;42.678;23.288;2022-09-24T08:10:06;13.23;;;8.48;;
21091;SDS011;10704;42.678;23.288;2022-09-24T08:12:32;16.75;;;9.10;;
21091;SDS011;10704;42.678;23.288;2022-09-24T08:14:58;11.60;;;8.90;;
21091;SDS011;10704;42.678;23.288;2022-09-24T08:17:24;10.98;;;8.68;;
21091;SDS011;10704;42.678;23.288;2022-09-24T08:19:51;12.73;;;8.65;;
21091;SDS011;10704;42.678;23.288;2022-09-24T08:22:21;11.55;;;8.20;;
21091;SDS011;10704;42.678;23.288;2022-09-24T08:24:49;10.77;;;8.48;;
21091;SDS011;10704;42.678;23.288;2022-09-24T08:27:15;12.48;;;8.05;;
21091;SDS011;10704;42.678;23.288;2022-09-24T08:29:41;14.95;;;9.25;;
21091;SDS011;10704;42.678;23.288;2022-09-24T08:32:07;11.48;;;8.40;;
21091;SDS011;10704;42.678;23.288;2022-09-24T08:34:33;14.95;;;8.70;;
21091;SDS011;10704;42.678;23.288;2022-09-24T08:37:03;13.88;;;8.43;;
21091;SDS011;10704;42.678;23.288;2022-09-24T08:39:30;13.90;;;7.85;;
21091;SDS011;10704;42.678;23.288;2022-09-24T08:44:34;13.30;;;8.98;;
21091;SDS011;10704;42.678;23.288;2022-09-24T09:03:50;23.23;;;11.43;;
21091;SDS011;10704;42.678;23.288;2022-09-24T09:09:22;17.60;;;10.15;;
21091;SDS011;10704;42.678;23.288;2022-09-24T09:11:51;14.07;;;8.82;;
21091;SDS011;10704;42.678;23.288;2022-09-24T09:19:56;12.80;;;7.60;;
21091;SDS011;10704;42.678;23.288;2022-09-24T09:22:27;12.50;;;7.35;;
21091;SDS011;10704;42.678;23.288;2022-09-24T09:25:03;15.75;;;7.30;;
21091;SDS011;10704;42.678;23.288;2022-09-24T09:27:45;14.35;;;7.78;;
21091;SDS011;10704;42.678;23.288;2022-09-24T09:30:40;13.10;;;7.63;;
21091;SDS011;10704;42.678;23.288;2022-09-24T09:41:25;12.63;;;7.82;;
21091;SDS011;10704;42.678;23.288;2022-09-24T09:44:24;14.48;;;7.05;;
21091;SDS011;10704;42.678;23.288;2022-09-24T09:47:39;11.63;;;7.05;;
21091;SDS011;10704;42.678;23.288;2022-09-24T09:49:49;20.73;;;8.10;;
21091;SDS011;10704;42.678;23.288;2022-09-24T09:52:21;10.85;;;7.45;;
21091;SDS011;10704;42.678;23.288;2022-09-24T09:54:51;12.27;;;7.30;;
21091;SDS011;10704;42.678;23.288;2022-09-24T09:57:20;8.55;;;6.25;;
21091;SDS011;10704;42.678;23.288;2022-09-24T09:59:50;8.95;;;6.20;;
21091;SDS011;10704;42.678;23.288;2022-09-24T10:02:28;9.77;;;6.60;;
21091;SDS011;10704;42.678;23.288;2022-09-24T10:04:58;12.35;;;7.20;;
21091;SDS011;10704;42.678;23.288;2022-09-24T10:07:28;10.77;;;6.70;;
21091;SDS011;10704;42.678;23.288;2022-09-24T10:12:45;5.80;;;3.70;;
21091;SDS011;10704;42.678;23.288;2022-09-24T10:15:15;7.30;;;3.72;;
21091;SDS011;10704;42.678;23.288;2022-09-24T10:17:46;4.57;;;2.20;;
21091;SDS011;10704;42.678;23.288;2022-09-24T10:20:24;2.72;;;1.83;;
21091;SDS011;10704;42.678;23.288;2022-09-24T10:23:13;4.28;;;2.30;;
21091;SDS011;10704;42.678;23.288;2022-09-24T10:25:54;8.18;;;4.10;;
21091;SDS011;10704;42.678;23.288;2022-09-24T10:28:24;8.07;;;4.00;;
21091;SDS011;10704;42.678;23.288;2022-09-24T10:31:20;5.25;;;2.53;;
21091;SDS011;10704;42.678;23.288;2022-09-24T10:33:49;8.60;;;2.33;;
21091;SDS011;10704;42.678;23.288;2022-09-24T10:36:19;6.07;;;2.25;;
21091;SDS011;10704;42.678;23.288;2022-09-24T10:38:48;5.32;;;2.45;;
21091;SDS011;10704;42.678;23.288;2022-09-24T10:41:26;3.17;;;1.83;;
21091;SDS011;10704;42.678;23.288;2022-09-24T10:43:53;6.93;;;3.50;;
21091;SDS011;10704;42.678;23.288;2022-09-24T10:52:08;4.28;;;2.28;;
21091;SDS011;10704;42.678;23.288;2022-09-24T10:54:51;3.75;;;2.28;;
21091;SDS011;10704;42.678;23.288;2022-09-24T10:57:28;5.88;;;2.70;;
21091;SDS011;10704;42.678;23.288;2022-09-24T11:00:06;7.50;;;3.30;;
21091;SDS011;10704;42.678;23.288;2022-09-24T11:05:36;6.32;;;3.10;;
21091;SDS011;10704;42.678;23.288;2022-09-24T11:08:25;4.00;;;2.60;;
21091;SDS011;10704;42.678;23.288;2022-09-24T11:22:28;4.63;;;2.33;;
21091;SDS011;10704;42.678;23.288;2022-09-24T11:25:19;4.28;;;2.30;;
21091;SDS011;10704;42.678;23.288;2022-09-24T11:44:42;5.10;;;2.53;;
21091;SDS011;10704;42.678;23.288;2022-09-24T11:53:09;3.38;;;2.30;;
21091;SDS011;10704;42.678;23.288;2022-09-24T11:55:48;5.80;;;2.58;;
21091;SDS011;10704;42.678;23.288;2022-09-24T11:58:29;4.50;;;2.25;;
21091;SDS011;10704;42.678;23.288;2022-09-24T12:01:08;4.57;;;2.25;;
21091;SDS011;10704;42.678;23.288;2022-09-24T12:03:41;4.60;;;2.10;;
21091;SDS011;10704;42.678;23.288;2022-09-24T12:06:20;2.65;;;2.05;;
21091;SDS011;10704;42.678;23.288;2022-09-24T12:12:07;3.33;;;1.90;;
21091;SDS011;10704;42.678;23.288;2022-09-24T12:14:54;4.18;;;2.70;;
21091;SDS011;10704;42.678;23.288;2022-09-24T12:17:34;3.92;;;2.25;;
21091;SDS011;10704;42.678;23.288;2022-09-24T12:22:36;11.10;;;5.32;;
21091;SDS011;10704;42.678;23.288;2022-09-24T12:25:04;5.32;;;3.05;;
21091;SDS011;10704;42.678;23.288;2022-09-24T12:27:37;3.42;;;1.83;;
21091;SDS011;10704;42.678;23.288;2022-09-24T12:36:00;3.72;;;2.35;;
21091;SDS011;10704;42.678;23.288;2022-09-24T12:41:08;5.00;;;3.00;;
21091;SDS011;10704;42.678;23.288;2022-09-24T12:46:49;4.38;;;2.20;;
21091;SDS011;10704;42.678;23.288;2022-09-24T12:49:23;3.53;;;2.30;;
21091;SDS011;10704;42.678;23.288;2022-09-24T12:55:26;4.40;;;2.10;;
21091;SDS011;10704;42.678;23.288;2022-09-24T13:00:40;5.07;;;2.40;;
21091;SDS011;10704;42.678;23.288;2022-09-24T13:05:57;7.05;;;2.90;;
21091;SDS011;10704;42.678;23.288;2022-09-24T13:08:25;4.93;;;1.90;;
21091;SDS011;10704;42.678;23.288;2022-09-24T13:11:00;4.72;;;2.22;;
21091;SDS011;10704;42.678;23.288;2022-09-24T13:13:35;12.68;;;6.88;;
21091;SDS011;10704;42.678;23.288;2022-09-24T13:16:17;8.38;;;5.35;;
21091;SDS011;10704;42.678;23.288;2022-09-24T13:19:45;3.78;;;2.55;;
21091;SDS011;10704;42.678;23.288;2022-09-24T13:21:53;5.53;;;2.58;;
21091;SDS011;10704;42.678;23.288;2022-09-24T13:24:28;5.32;;;2.05;;
21091;SDS011;10704;42.678;23.288;2022-09-24T13:27:17;3.97;;;2.30;;
21091;SDS011;10704;42.678;23.288;2022-09-24T13:32:36;3.88;;;2.28;;
21091;SDS011;10704;42.678;23.288;2022-09-24T13:35:26;5.50;;;2.38;;
21091;SDS011;10704;42.678;23.288;2022-09-24T13:38:13;4.05;;;2.30;;
21091;SDS011;10704;42.678;23.288;2022-09-24T13:40:52;4.10;;;2.83;;
21091;SDS011;10704;42.678;23.288;2022-09-24T13:43:32;5.85;;;2.70;;
21091;SDS011;10704;42.678;23.288;2022-09-24T13:46:09;3.13;;;2.13;;
21091;SDS011;10704;42.678;23.288;2022-09-24T13:48:40;4.13;;;2.25;;
21091;SDS011;10704;42.678;23.288;2022-09-24T13:51:12;4.03;;;1.83;;
21091;SDS011;10704;42.678;23.288;2022-09-24T13:56:19;5.90;;;3.38;;
21091;SDS011;10704;42.678;23.288;2022-09-24T13:58:46;5.72;;;3.25;;
21091;SDS011;10704;42.678;23.288;2022-09-24T14:03:41;3.20;;;1.98;;
21091;SDS011;10704;42.678;23.288;2022-09-24T14:06:17;4.40;;;2.30;;
21091;SDS011;10704;42.678;23.288;2022-09-24T14:08:47;5.28;;;2.40;;
21091;SDS011;10704;42.678;23.288;2022-09-24T14:13:44;6.43;;;2.63;;
21091;SDS011;10704;42.678;23.288;2022-09-24T14:16:14;5.75;;;2.60;;
21091;SDS011;10704;42.678;23.288;2022-09-24T14:18:47;4.47;;;2.33;;
21091;SDS011;10704;42.678;23.288;2022-09-24T14:23:52;3.53;;;1.98;;
21091;SDS011;10704;42.678;23.288;2022-09-24T14:26:35;9.95;;;4.93;;
21091;SDS011;10704;42.678;23.288;2022-09-24T14:29:07;7.03;;;3.40;;
21091;SDS011;10704;42.678;23.288;2022-09-24T14:31:43;10.07;;;4.20;;
21091;SDS011;10704;42.678;23.288;2022-09-24T14:34:46;7.13;;;3.20;;
21091;SDS011;10704;42.678;23.288;2022-09-24T14:37:08;5.72;;;2.90;;
21091;SDS011;10704;42.678;23.288;2022-09-24T14:39:42;7.72;;;4.88;;
21091;SDS011;10704;42.678;23.288;2022-09-24T14:44:46;10.60;;;5.25;;
21091;SDS011;10704;42.678;23.288;2022-09-24T14:49:52;5.47;;;3.80;;
21091;SDS011;10704;42.678;23.288;2022-09-24T14:52:35;10.18;;;4.35;;
21091;SDS011;10704;42.678;23.288;2022-09-24T14:55:14;7.47;;;4.32;;
21091;SDS011;10704;42.678;23.288;2022-09-24T14:57:43;5.90;;;3.33;;
21091;SDS011;10704;42.678;23.288;2022-09-24T15:01:11;7.78;;;3.30;;
21091;SDS011;10704;42.678;23.288;2022-09-24T15:03:12;12.35;;;4.22;;
21091;SDS011;10704;42.678;23.288;2022-09-24T15:05:41;6.32;;;3.65;;
21091;SDS011;10704;42.678;23.288;2022-09-24T15:11:06;6.00;;;3.75;;
21091;SDS011;10704;42.678;23.288;2022-09-24T15:13:44;8.93;;;4.22;;
21091;SDS011;10704;42.678;23.288;2022-09-24T15:16:20;8.90;;;3.17;;
21091;SDS011;10704;42.678;23.288;2022-09-24T15:18:56;7.45;;;3.60;;
21091;SDS011;10704;42.678;23.288;2022-09-24T15:21:23;4.43;;;2.80;;
21091;SDS011;10704;42.678;23.288;2022-09-24T15:23:49;5.93;;;2.90;;
21091;SDS011;10704;42.678;23.288;2022-09-24T15:26:15;5.00;;;3.03;;
21091;SDS011;10704;42.678;23.288;2022-09-24T15:28:41;5.82;;;3.47;;
21091;SDS011;10704;42.678;23.288;2022-09-24T15:31:06;6.50;;;3.50;;
21091;SDS011;10704;42.678;23.288;2022-09-24T15:33:33;7.63;;;3.88;;
21091;SDS011;10704;42.678;23.288;2022-09-24T15:35:59;6.43;;;3.08;;
21091;SDS011;10704;42.678;23.288;2022-09-24T15:38:25;3.92;;;2.80;;
21091;SDS011;10704;42.678;23.288;2022-09-24T15:40:51;10.43;;;4.10;;
21091;SDS011;10704;42.678;23.288;2022-09-24T15:43:19;9.32;;;4.50;;
21091;SDS011;10704;42.678;23.288;2022-09-24T15:45:46;9.25;;;4.97;;
21091;SDS011;10704;42.678;23.288;2022-09-24T15:48:12;10.85;;;6.38;;
21091;SDS011;10704;42.678;23.288;2022-09-24T15:50:39;12.73;;;6.78;;
21091;SDS011;10704;42.678;23.288;2022-09-24T15:53:06;10.88;;;5.47;;
21091;SDS011;10704;42.678;23.288;2022-09-24T15:55:50;12.40;;;6.30;;
21091;SDS011;10704;42.678;23.288;2022-09-24T15:58:18;10.85;;;6.60;;
21091;SDS011;10704;42.678;23.288;2022-09-24T16:00:44;16.50;;;8.05;;
21091;SDS011;10704;42.678;23.288;2022-09-24T16:03:21;13.02;;;6.35;;
21091;SDS011;10704;42.678;23.288;2022-09-24T16:05:51;12.07;;;7.65;;
21091;SDS011;10704;42.678;23.288;2022-09-24T16:08:18;12.70;;;7.38;;
21091;SDS011;10704;42.678;23.288;2022-09-24T16:10:44;9.85;;;5.90;;
21091;SDS011;10704;42.678;23.288;2022-09-24T16:13:11;14.18;;;6.60;;
21091;SDS011;10704;42.678;23.288;2022-09-24T16:15:37;11.57;;;8.07;;
21091;SDS011;10704;42.678;23.288;2022-09-24T16:18:04;14.40;;;7.75;;
21091;SDS011;10704;42.678;23.288;2022-09-24T16:20:32;10.27;;;5.43;;
21091;SDS011;10704;42.678;23.288;2022-09-24T16:22:58;10.02;;;5.03;;
21091;SDS011;10704;42.678;23.288;2022-09-24T16:25:24;8.43;;;4.55;;
21091;SDS011;10704;42.678;23.288;2022-09-24T16:27:52;12.57;;;4.55;;
21091;SDS011;10704;42.678;23.288;2022-09-24T16:30:18;7.22;;;3.53;;
21091;SDS011;10704;42.678;23.288;2022-09-24T16:32:44;7.10;;;4.22;;
21091;SDS011;10704;42.678;23.288;2022-09-24T16:35:11;8.70;;;4.10;;
21091;SDS011;10704;42.678;23.288;2022-09-24T16:37:38;9.23;;;4.40;;
21091;SDS011;10704;42.678;23.288;2022-09-24T16:40:05;9.45;;;5.78;;
21091;SDS011;10704;42.678;23.288;2022-09-24T16:42:32;11.35;;;5.22;;
21091;SDS011;10704;42.678;23.288;2022-09-24T16:44:59;14.82;;;6.18;;
21091;SDS011;10704;42.678;23.288;2022-09-24T16:47:26;14.80;;;6.30;;
21091;SDS011;10704;42.678;23.288;2022-09-24T16:49:53;16.10;;;6.22;;
21091;SDS011;10704;42.678;23.288;2022-09-24T16:52:19;17.42;;;9.40;;
21091;SDS011;10704;42.678;23.288;2022-09-24T16:54:46;17.88;;;9.70;;
21091;SDS011;10704;42.678;23.288;2022-09-24T16:57:12;10.40;;;5.55;;
21091;SDS011;10704;42.678;23.288;2022-09-24T16:59:39;11.32;;;6.07;;
21091;SDS011;10704;42.678;23.288;2022-09-24T17:02:05;12.23;;;6.05;;
21091;SDS011;10704;42.678;23.288;2022-09-24T17:04:32;17.13;;;7.35;;
21091;SDS011;10704;42.678;23.288;2022-09-24T17:06:59;11.43;;;5.82;;
21091;SDS011;10704;42.678;23.288;2022-09-24T17:09:25;10.13;;;5.65;;
21091;SDS011;10704;42.678;23.288;2022-09-24T17:12:10;10.48;;;6.45;;
21091;SDS011;10704;42.678;23.288;2022-09-24T17:14:36;16.30;;;9.57;;